sensor_id;sensor_type;location;lat;lon;timestamp;temperature;humidity
51215;DHT22;63849;47.546;19.254;2024-02-23T00:00:27;9.60;65.50
51215;DHT22;63849;47.546;19.254;2024-02-23T00:02:52;9.60;65.70
51215;DHT22;63849;47.546;19.254;2024-02-23T00:05:19;9.60;65.60
51215;DHT22;63849;47.546;19.254;2024-02-23T00:07:45;9.60;65.70
51215;DHT22;63849;47.546;19.254;2024-02-23T00:10:11;9.60;65.60
51215;DHT22;63849;47.546;19.254;2024-02-23T00:12:36;9.60;65.70
51215;DHT22;63849;47.546;19.254;2024-02-23T00:15:02;9.60;65.80
51215;DHT22;63849;47.546;19.254;2024-02-23T00:17:28;9.60;65.70
51215;DHT22;63849;47.546;19.254;2024-02-23T00:19:53;9.60;65.60
51215;DHT22;63849;47.546;19.254;2024-02-23T00:22:19;9.60;65.60
51215;DHT22;63849;47.546;19.254;2024-02-23T00:24:45;9.60;65.70
51215;DHT22;63849;47.546;19.254;2024-02-23T00:27:10;9.60;65.70
51215;DHT22;63849;47.546;19.254;2024-02-23T00:29:36;9.60;65.70
51215;DHT22;63849;47.546;19.254;2024-02-23T00:32:03;9.60;65.70
51215;DHT22;63849;47.546;19.254;2024-02-23T00:34:29;9.60;65.40
51215;DHT22;63849;47.546;19.254;2024-02-23T00:36:57;9.70;65.60
51215;DHT22;63849;47.546;19.254;2024-02-23T00:39:22;9.70;65.70
51215;DHT22;63849;47.546;19.254;2024-02-23T00:41:48;9.70;65.60
51215;DHT22;63849;47.546;19.254;2024-02-23T00:44:14;9.70;65.80
51215;DHT22;63849;47.546;19.254;2024-02-23T00:46:40;9.80;66.00
51215;DHT22;63849;47.546;19.254;2024-02-23T00:49:06;9.80;65.90
51215;DHT22;63849;47.546;19.254;2024-02-23T00:51:32;9.80;65.80
51215;DHT22;63849;47.546;19.254;2024-02-23T00:53:57;9.80;66.20
51215;DHT22;63849;47.546;19.254;2024-02-23T00:56:23;9.80;66.60
51215;DHT22;63849;47.546;19.254;2024-02-23T00:58:49;9.80;67.00
51215;DHT22;63849;47.546;19.254;2024-02-23T01:01:14;9.80;67.30
51215;DHT22;63849;47.546;19.254;2024-02-23T01:03:40;9.80;67.10
51215;DHT22;63849;47.546;19.254;2024-02-23T01:06:06;9.80;66.90
51215;DHT22;63849;47.546;19.254;2024-02-23T01:08:31;9.80;67.10
51215;DHT22;63849;47.546;19.254;2024-02-23T01:10:57;9.80;67.30
51215;DHT22;63849;47.546;19.254;2024-02-23T01:13:22;9.80;67.80
51215;DHT22;63849;47.546;19.254;2024-02-23T01:15:48;9.80;68.00
51215;DHT22;63849;47.546;19.254;2024-02-23T01:18:14;9.80;68.40
51215;DHT22;63849;47.546;19.254;2024-02-23T01:20:39;9.80;69.20
51215;DHT22;63849;47.546;19.254;2024-02-23T01:23:05;9.80;69.40
51215;DHT22;63849;47.546;19.254;2024-02-23T01:25:31;9.80;70.10
51215;DHT22;63849;47.546;19.254;2024-02-23T01:27:56;9.70;70.80
51215;DHT22;63849;47.546;19.254;2024-02-23T01:30:22;9.70;71.10
51215;DHT22;63849;47.546;19.254;2024-02-23T01:32:48;9.70;71.30
51215;DHT22;63849;47.546;19.254;2024-02-23T01:35:15;9.70;71.70
51215;DHT22;63849;47.546;19.254;2024-02-23T01:37:41;9.70;71.90
51215;DHT22;63849;47.546;19.254;2024-02-23T01:40:07;9.60;72.40
51215;DHT22;63849;47.546;19.254;2024-02-23T01:42:32;9.60;72.50
51215;DHT22;63849;47.546;19.254;2024-02-23T01:44:58;9.60;72.80
51215;DHT22;63849;47.546;19.254;2024-02-23T01:47:25;9.60;73.10
51215;DHT22;63849;47.546;19.254;2024-02-23T01:49:53;9.50;73.60
51215;DHT22;63849;47.546;19.254;2024-02-23T01:52:20;9.60;73.60
51215;DHT22;63849;47.546;19.254;2024-02-23T01:54:46;9.60;73.80
51215;DHT22;63849;47.546;19.254;2024-02-23T01:57:11;9.50;74.00
51215;DHT22;63849;47.546;19.254;2024-02-23T01:59:38;9.50;74.30
51215;DHT22;63849;47.546;19.254;2024-02-23T02:02:04;9.50;74.70
51215;DHT22;63849;47.546;19.254;2024-02-23T02:04:30;9.40;75.10
51215;DHT22;63849;47.546;19.254;2024-02-23T02:06:57;9.40;75.20
51215;DHT22;63849;47.546;19.254;2024-02-23T02:09:24;9.40;75.40
51215;DHT22;63849;47.546;19.254;2024-02-23T02:11:50;9.40;75.70
51215;DHT22;63849;47.546;19.254;2024-02-23T02:14:16;9.30;76.30
51215;DHT22;63849;47.546;19.254;2024-02-23T02:16:43;9.30;76.30
51215;DHT22;63849;47.546;19.254;2024-02-23T02:19:10;9.30;76.50
51215;DHT22;63849;47.546;19.254;2024-02-23T02:21:37;9.30;76.40
51215;DHT22;63849;47.546;19.254;2024-02-23T02:24:03;9.30;76.30
51215;DHT22;63849;47.546;19.254;2024-02-23T02:26:29;9.30;76.50
51215;DHT22;63849;47.546;19.254;2024-02-23T02:28:55;9.30;76.50
51215;DHT22;63849;47.546;19.254;2024-02-23T02:31:21;9.30;76.50
51215;DHT22;63849;47.546;19.254;2024-02-23T02:33:46;9.30;76.60
51215;DHT22;63849;47.546;19.254;2024-02-23T02:36:12;9.30;76.90
51215;DHT22;63849;47.546;19.254;2024-02-23T02:38:38;9.30;77.00
51215;DHT22;63849;47.546;19.254;2024-02-23T02:41:04;9.30;77.10
51215;DHT22;63849;47.546;19.254;2024-02-23T02:43:30;9.30;77.40
51215;DHT22;63849;47.546;19.254;2024-02-23T02:45:56;9.30;77.60
51215;DHT22;63849;47.546;19.254;2024-02-23T02:48:22;9.30;77.80
51215;DHT22;63849;47.546;19.254;2024-02-23T02:50:48;9.30;77.90
51215;DHT22;63849;47.546;19.254;2024-02-23T02:53:15;9.30;78.40
51215;DHT22;63849;47.546;19.254;2024-02-23T02:55:44;9.30;78.60
51215;DHT22;63849;47.546;19.254;2024-02-23T02:58:13;9.30;78.40
51215;DHT22;63849;47.546;19.254;2024-02-23T03:00:39;9.30;79.10
51215;DHT22;63849;47.546;19.254;2024-02-23T03:03:04;9.30;79.30
51215;DHT22;63849;47.546;19.254;2024-02-23T03:05:30;9.30;79.40
51215;DHT22;63849;47.546;19.254;2024-02-23T03:07:56;9.30;79.50
51215;DHT22;63849;47.546;19.254;2024-02-23T03:10:21;9.20;79.70
51215;DHT22;63849;47.546;19.254;2024-02-23T03:12:47;9.20;80.20
51215;DHT22;63849;47.546;19.254;2024-02-23T03:15:13;9.20;80.30
51215;DHT22;63849;47.546;19.254;2024-02-23T03:17:38;9.20;80.50
51215;DHT22;63849;47.546;19.254;2024-02-23T03:20:04;9.10;80.90
51215;DHT22;63849;47.546;19.254;2024-02-23T03:22:39;9.10;81.10
51215;DHT22;63849;47.546;19.254;2024-02-23T03:25:05;9.10;81.20
51215;DHT22;63849;47.546;19.254;2024-02-23T03:27:36;9.20;81.30
51215;DHT22;63849;47.546;19.254;2024-02-23T03:30:06;9.10;81.60
51215;DHT22;63849;47.546;19.254;2024-02-23T03:32:33;9.10;81.50
51215;DHT22;63849;47.546;19.254;2024-02-23T03:35:04;9.10;81.80
51215;DHT22;63849;47.546;19.254;2024-02-23T03:37:30;9.10;82.10
51215;DHT22;63849;47.546;19.254;2024-02-23T03:39:56;9.10;82.30
51215;DHT22;63849;47.546;19.254;2024-02-23T03:42:21;9.10;82.30
51215;DHT22;63849;47.546;19.254;2024-02-23T03:44:47;9.00;82.50
51215;DHT22;63849;47.546;19.254;2024-02-23T03:47:13;9.10;82.80
51215;DHT22;63849;47.546;19.254;2024-02-23T03:49:38;9.10;82.70
51215;DHT22;63849;47.546;19.254;2024-02-23T03:52:04;9.10;82.70
51215;DHT22;63849;47.546;19.254;2024-02-23T03:54:30;9.10;82.90
51215;DHT22;63849;47.546;19.254;2024-02-23T03:56:57;9.00;82.90
51215;DHT22;63849;47.546;19.254;2024-02-23T03:59:22;9.00;83.30
51215;DHT22;63849;47.546;19.254;2024-02-23T04:01:48;9.00;83.20
51215;DHT22;63849;47.546;19.254;2024-02-23T04:04:14;9.10;83.20
51215;DHT22;63849;47.546;19.254;2024-02-23T04:06:39;9.00;83.30
51215;DHT22;63849;47.546;19.254;2024-02-23T04:09:05;9.00;83.30
51215;DHT22;63849;47.546;19.254;2024-02-23T04:11:31;9.10;83.30
51215;DHT22;63849;47.546;19.254;2024-02-23T04:13:57;9.10;83.20
51215;DHT22;63849;47.546;19.254;2024-02-23T04:16:26;9.00;83.30
51215;DHT22;63849;47.546;19.254;2024-02-23T04:18:53;9.10;83.20
51215;DHT22;63849;47.546;19.254;2024-02-23T04:21:19;9.00;83.40
51215;DHT22;63849;47.546;19.254;2024-02-23T04:23:44;8.90;83.40
51215;DHT22;63849;47.546;19.254;2024-02-23T04:26:10;8.90;83.50
51215;DHT22;63849;47.546;19.254;2024-02-23T04:28:40;8.90;83.70
51215;DHT22;63849;47.546;19.254;2024-02-23T04:31:07;8.90;83.90
51215;DHT22;63849;47.546;19.254;2024-02-23T04:33:34;8.90;84.00
51215;DHT22;63849;47.546;19.254;2024-02-23T04:36:00;8.90;84.10
51215;DHT22;63849;47.546;19.254;2024-02-23T04:38:26;8.90;84.20
51215;DHT22;63849;47.546;19.254;2024-02-23T04:40:52;8.90;84.10
51215;DHT22;63849;47.546;19.254;2024-02-23T04:43:17;8.90;84.20
51215;DHT22;63849;47.546;19.254;2024-02-23T04:45:43;8.90;84.30
51215;DHT22;63849;47.546;19.254;2024-02-23T04:48:08;8.90;84.60
51215;DHT22;63849;47.546;19.254;2024-02-23T04:50:34;8.90;84.60
51215;DHT22;63849;47.546;19.254;2024-02-23T04:53:00;8.90;84.40
51215;DHT22;63849;47.546;19.254;2024-02-23T04:55:25;8.90;84.50
51215;DHT22;63849;47.546;19.254;2024-02-23T04:57:51;8.90;84.50
51215;DHT22;63849;47.546;19.254;2024-02-23T05:00:17;8.90;84.60
51215;DHT22;63849;47.546;19.254;2024-02-23T05:02:43;8.90;84.60
51215;DHT22;63849;47.546;19.254;2024-02-23T05:05:08;8.90;84.70
51215;DHT22;63849;47.546;19.254;2024-02-23T05:07:34;8.90;84.60
51215;DHT22;63849;47.546;19.254;2024-02-23T05:10:00;9.00;84.60
51215;DHT22;63849;47.546;19.254;2024-02-23T05:12:26;9.00;84.70
51215;DHT22;63849;47.546;19.254;2024-02-23T05:14:52;9.00;84.80
51215;DHT22;63849;47.546;19.254;2024-02-23T05:17:17;9.00;84.90
51215;DHT22;63849;47.546;19.254;2024-02-23T05:19:43;9.10;84.80
51215;DHT22;63849;47.546;19.254;2024-02-23T05:22:09;9.10;84.80
51215;DHT22;63849;47.546;19.254;2024-02-23T05:24:35;9.10;84.80
51215;DHT22;63849;47.546;19.254;2024-02-23T05:27:00;9.10;84.80
51215;DHT22;63849;47.546;19.254;2024-02-23T05:29:28;9.00;84.90
51215;DHT22;63849;47.546;19.254;2024-02-23T05:31:54;9.10;85.00
51215;DHT22;63849;47.546;19.254;2024-02-23T05:34:20;9.10;85.10
51215;DHT22;63849;47.546;19.254;2024-02-23T05:36:47;9.00;85.20
51215;DHT22;63849;47.546;19.254;2024-02-23T05:39:13;9.10;85.20
51215;DHT22;63849;47.546;19.254;2024-02-23T05:41:41;9.10;85.10
51215;DHT22;63849;47.546;19.254;2024-02-23T05:44:07;9.10;85.20
51215;DHT22;63849;47.546;19.254;2024-02-23T05:46:33;9.10;85.30
51215;DHT22;63849;47.546;19.254;2024-02-23T05:48:59;9.00;85.30
51215;DHT22;63849;47.546;19.254;2024-02-23T05:51:25;9.00;85.50
51215;DHT22;63849;47.546;19.254;2024-02-23T05:53:50;9.00;85.80
51215;DHT22;63849;47.546;19.254;2024-02-23T05:56:16;9.00;85.70
51215;DHT22;63849;47.546;19.254;2024-02-23T05:58:42;9.00;86.00
51215;DHT22;63849;47.546;19.254;2024-02-23T06:01:07;9.00;86.00
51215;DHT22;63849;47.546;19.254;2024-02-23T06:03:33;9.00;86.20
51215;DHT22;63849;47.546;19.254;2024-02-23T06:05:59;9.00;86.40
51215;DHT22;63849;47.546;19.254;2024-02-23T06:08:25;9.00;86.50
51215;DHT22;63849;47.546;19.254;2024-02-23T06:10:51;8.90;86.60
51215;DHT22;63849;47.546;19.254;2024-02-23T06:13:16;9.10;86.50
51215;DHT22;63849;47.546;19.254;2024-02-23T06:15:42;9.10;86.60
51215;DHT22;63849;47.546;19.254;2024-02-23T06:18:08;9.00;86.50
51215;DHT22;63849;47.546;19.254;2024-02-23T06:20:34;9.10;86.60
51215;DHT22;63849;47.546;19.254;2024-02-23T06:22:59;9.10;86.70
51215;DHT22;63849;47.546;19.254;2024-02-23T06:25:25;9.10;86.70
51215;DHT22;63849;47.546;19.254;2024-02-23T06:27:51;9.10;86.80
51215;DHT22;63849;47.546;19.254;2024-02-23T06:30:16;9.10;86.80
51215;DHT22;63849;47.546;19.254;2024-02-23T06:32:42;9.10;86.90
51215;DHT22;63849;47.546;19.254;2024-02-23T06:35:09;9.10;86.70
51215;DHT22;63849;47.546;19.254;2024-02-23T06:37:37;9.10;86.90
51215;DHT22;63849;47.546;19.254;2024-02-23T06:40:02;9.10;86.70
51215;DHT22;63849;47.546;19.254;2024-02-23T06:42:29;9.10;86.60
51215;DHT22;63849;47.546;19.254;2024-02-23T06:44:55;9.10;86.70
51215;DHT22;63849;47.546;19.254;2024-02-23T06:47:21;9.10;86.70
51215;DHT22;63849;47.546;19.254;2024-02-23T06:49:47;9.10;86.70
51215;DHT22;63849;47.546;19.254;2024-02-23T06:52:13;9.10;86.80
51215;DHT22;63849;47.546;19.254;2024-02-23T06:54:39;9.10;86.90
51215;DHT22;63849;47.546;19.254;2024-02-23T06:57:04;9.20;86.90
51215;DHT22;63849;47.546;19.254;2024-02-23T06:59:30;9.20;86.90
51215;DHT22;63849;47.546;19.254;2024-02-23T07:01:57;9.20;87.00
51215;DHT22;63849;47.546;19.254;2024-02-23T07:04:23;9.30;87.00
51215;DHT22;63849;47.546;19.254;2024-02-23T07:06:48;9.30;86.90
51215;DHT22;63849;47.546;19.254;2024-02-23T07:09:14;9.30;86.80
51215;DHT22;63849;47.546;19.254;2024-02-23T07:11:40;9.30;86.70
51215;DHT22;63849;47.546;19.254;2024-02-23T07:14:07;9.30;86.80
51215;DHT22;63849;47.546;19.254;2024-02-23T07:16:38;9.30;86.70
51215;DHT22;63849;47.546;19.254;2024-02-23T07:19:04;9.30;86.80
51215;DHT22;63849;47.546;19.254;2024-02-23T07:21:30;9.30;86.80
51215;DHT22;63849;47.546;19.254;2024-02-23T07:23:56;9.40;86.80
51215;DHT22;63849;47.546;19.254;2024-02-23T07:26:22;9.40;86.90
51215;DHT22;63849;47.546;19.254;2024-02-23T07:28:48;9.40;86.80
51215;DHT22;63849;47.546;19.254;2024-02-23T07:31:14;9.40;86.90
51215;DHT22;63849;47.546;19.254;2024-02-23T07:33:41;9.40;87.10
51215;DHT22;63849;47.546;19.254;2024-02-23T07:36:07;9.50;86.60
51215;DHT22;63849;47.546;19.254;2024-02-23T07:38:34;9.50;86.80
51215;DHT22;63849;47.546;19.254;2024-02-23T07:41:00;9.50;86.70
51215;DHT22;63849;47.546;19.254;2024-02-23T07:43:25;9.50;86.60
51215;DHT22;63849;47.546;19.254;2024-02-23T07:45:51;9.50;86.30
51215;DHT22;63849;47.546;19.254;2024-02-23T07:48:17;9.40;86.60
51215;DHT22;63849;47.546;19.254;2024-02-23T07:50:43;9.50;86.50
51215;DHT22;63849;47.546;19.254;2024-02-23T07:53:09;9.50;86.50
51215;DHT22;63849;47.546;19.254;2024-02-23T07:55:34;9.40;86.80
51215;DHT22;63849;47.546;19.254;2024-02-23T07:58:00;9.40;86.60
51215;DHT22;63849;47.546;19.254;2024-02-23T08:00:27;9.50;86.70
51215;DHT22;63849;47.546;19.254;2024-02-23T08:02:53;9.50;86.80
51215;DHT22;63849;47.546;19.254;2024-02-23T08:05:22;9.50;86.90
51215;DHT22;63849;47.546;19.254;2024-02-23T08:07:48;9.50;86.90
51215;DHT22;63849;47.546;19.254;2024-02-23T08:10:14;9.50;86.90
51215;DHT22;63849;47.546;19.254;2024-02-23T08:12:40;9.60;86.90
51215;DHT22;63849;47.546;19.254;2024-02-23T08:15:06;9.50;87.00
51215;DHT22;63849;47.546;19.254;2024-02-23T08:17:32;9.60;87.10
51215;DHT22;63849;47.546;19.254;2024-02-23T08:19:57;9.60;87.00
51215;DHT22;63849;47.546;19.254;2024-02-23T08:22:23;9.70;86.90
51215;DHT22;63849;47.546;19.254;2024-02-23T08:24:49;9.70;86.80
51215;DHT22;63849;47.546;19.254;2024-02-23T08:27:15;9.60;86.90
51215;DHT22;63849;47.546;19.254;2024-02-23T08:29:40;9.60;86.90
51215;DHT22;63849;47.546;19.254;2024-02-23T08:32:07;9.60;86.80
51215;DHT22;63849;47.546;19.254;2024-02-23T08:34:33;9.70;86.90
51215;DHT22;63849;47.546;19.254;2024-02-23T08:37:00;9.70;86.70
51215;DHT22;63849;47.546;19.254;2024-02-23T08:39:26;9.70;86.90
51215;DHT22;63849;47.546;19.254;2024-02-23T08:41:52;9.70;86.90
51215;DHT22;63849;47.546;19.254;2024-02-23T08:44:18;9.70;87.00
51215;DHT22;63849;47.546;19.254;2024-02-23T08:46:44;9.80;87.10
51215;DHT22;63849;47.546;19.254;2024-02-23T08:49:10;9.80;87.00
51215;DHT22;63849;47.546;19.254;2024-02-23T08:51:35;9.80;87.10
51215;DHT22;63849;47.546;19.254;2024-02-23T08:54:02;9.90;87.10
51215;DHT22;63849;47.546;19.254;2024-02-23T08:56:30;9.90;87.10
51215;DHT22;63849;47.546;19.254;2024-02-23T08:58:56;9.90;86.90
51215;DHT22;63849;47.546;19.254;2024-02-23T09:01:21;9.90;86.90
51215;DHT22;63849;47.546;19.254;2024-02-23T09:03:47;10.00;86.90
51215;DHT22;63849;47.546;19.254;2024-02-23T09:06:13;10.00;86.80
51215;DHT22;63849;47.546;19.254;2024-02-23T09:08:39;10.00;86.80
51215;DHT22;63849;47.546;19.254;2024-02-23T09:11:06;10.10;86.60
51215;DHT22;63849;47.546;19.254;2024-02-23T09:13:32;10.00;86.50
51215;DHT22;63849;47.546;19.254;2024-02-23T09:15:57;10.00;86.70
51215;DHT22;63849;47.546;19.254;2024-02-23T09:18:23;9.90;86.80
51215;DHT22;63849;47.546;19.254;2024-02-23T09:20:49;10.00;87.00
51215;DHT22;63849;47.546;19.254;2024-02-23T09:23:14;9.90;87.00
51215;DHT22;63849;47.546;19.254;2024-02-23T09:25:40;10.00;87.00
51215;DHT22;63849;47.546;19.254;2024-02-23T09:28:07;10.10;87.20
51215;DHT22;63849;47.546;19.254;2024-02-23T09:30:33;10.00;87.00
51215;DHT22;63849;47.546;19.254;2024-02-23T09:32:58;10.00;87.00
51215;DHT22;63849;47.546;19.254;2024-02-23T09:35:24;10.10;87.10
51215;DHT22;63849;47.546;19.254;2024-02-23T09:37:50;10.20;87.00
51215;DHT22;63849;47.546;19.254;2024-02-23T09:40:16;10.30;86.80
51215;DHT22;63849;47.546;19.254;2024-02-23T09:42:42;10.20;87.00
51215;DHT22;63849;47.546;19.254;2024-02-23T09:45:08;10.30;87.00
51215;DHT22;63849;47.546;19.254;2024-02-23T09:47:36;10.30;87.30
51215;DHT22;63849;47.546;19.254;2024-02-23T09:50:04;10.40;87.10
51215;DHT22;63849;47.546;19.254;2024-02-23T09:52:32;10.40;86.90
51215;DHT22;63849;47.546;19.254;2024-02-23T09:54:57;10.40;86.70
51215;DHT22;63849;47.546;19.254;2024-02-23T09:57:23;10.50;86.70
51215;DHT22;63849;47.546;19.254;2024-02-23T09:59:50;10.60;86.50
51215;DHT22;63849;47.546;19.254;2024-02-23T10:02:17;10.60;86.30
51215;DHT22;63849;47.546;19.254;2024-02-23T10:04:43;10.70;86.00
51215;DHT22;63849;47.546;19.254;2024-02-23T10:07:09;10.70;85.90
51215;DHT22;63849;47.546;19.254;2024-02-23T10:09:36;10.70;85.90
51215;DHT22;63849;47.546;19.254;2024-02-23T10:12:02;10.70;86.10
51215;DHT22;63849;47.546;19.254;2024-02-23T10:14:28;10.70;86.10
51215;DHT22;63849;47.546;19.254;2024-02-23T10:16:54;10.70;85.90
51215;DHT22;63849;47.546;19.254;2024-02-23T10:19:21;10.60;86.10
51215;DHT22;63849;47.546;19.254;2024-02-23T10:21:47;10.70;86.10
51215;DHT22;63849;47.546;19.254;2024-02-23T10:24:16;10.70;86.30
51215;DHT22;63849;47.546;19.254;2024-02-23T10:26:42;10.70;86.10
51215;DHT22;63849;47.546;19.254;2024-02-23T10:29:08;10.60;85.90
51215;DHT22;63849;47.546;19.254;2024-02-23T10:31:36;10.60;85.80
51215;DHT22;63849;47.546;19.254;2024-02-23T10:34:11;10.50;85.60
51215;DHT22;63849;47.546;19.254;2024-02-23T10:36:42;10.50;85.60
51215;DHT22;63849;47.546;19.254;2024-02-23T10:39:08;10.50;85.80
51215;DHT22;63849;47.546;19.254;2024-02-23T10:41:35;10.50;85.70
51215;DHT22;63849;47.546;19.254;2024-02-23T10:44:05;10.40;85.60
51215;DHT22;63849;47.546;19.254;2024-02-23T10:46:32;10.50;85.30
51215;DHT22;63849;47.546;19.254;2024-02-23T10:48:58;10.50;84.80
51215;DHT22;63849;47.546;19.254;2024-02-23T10:51:28;10.50;85.20
51215;DHT22;63849;47.546;19.254;2024-02-23T10:53:54;10.40;85.60
51215;DHT22;63849;47.546;19.254;2024-02-23T10:56:20;10.40;85.90
51215;DHT22;63849;47.546;19.254;2024-02-23T10:58:48;10.40;86.30
51215;DHT22;63849;47.546;19.254;2024-02-23T11:01:14;10.40;86.20
51215;DHT22;63849;47.546;19.254;2024-02-23T11:03:42;10.40;86.40
51215;DHT22;63849;47.546;19.254;2024-02-23T11:06:10;10.50;86.30
51215;DHT22;63849;47.546;19.254;2024-02-23T11:08:36;10.50;86.50
51215;DHT22;63849;47.546;19.254;2024-02-23T11:11:10;10.40;86.70
51215;DHT22;63849;47.546;19.254;2024-02-23T11:13:38;10.40;86.90
51215;DHT22;63849;47.546;19.254;2024-02-23T11:16:05;10.40;86.80
51215;DHT22;63849;47.546;19.254;2024-02-23T11:18:31;10.40;87.00
51215;DHT22;63849;47.546;19.254;2024-02-23T11:21:02;10.50;86.90
51215;DHT22;63849;47.546;19.254;2024-02-23T11:23:50;10.50;86.80
51215;DHT22;63849;47.546;19.254;2024-02-23T11:26:17;10.60;86.40
51215;DHT22;63849;47.546;19.254;2024-02-23T11:28:50;10.60;86.50
51215;DHT22;63849;47.546;19.254;2024-02-23T11:31:23;10.70;86.40
51215;DHT22;63849;47.546;19.254;2024-02-23T11:33:55;10.70;86.40
51215;DHT22;63849;47.546;19.254;2024-02-23T11:36:34;10.70;86.70
51215;DHT22;63849;47.546;19.254;2024-02-23T11:39:01;10.80;86.20
51215;DHT22;63849;47.546;19.254;2024-02-23T11:41:27;10.80;85.70
51215;DHT22;63849;47.546;19.254;2024-02-23T11:43:55;10.80;85.60
51215;DHT22;63849;47.546;19.254;2024-02-23T11:46:21;10.80;85.90
51215;DHT22;63849;47.546;19.254;2024-02-23T11:48:47;10.80;85.50
51215;DHT22;63849;47.546;19.254;2024-02-23T11:51:19;10.80;85.70
51215;DHT22;63849;47.546;19.254;2024-02-23T11:53:45;10.90;85.50
51215;DHT22;63849;47.546;19.254;2024-02-23T11:56:11;10.90;85.50
51215;DHT22;63849;47.546;19.254;2024-02-23T11:58:37;10.90;85.70
51215;DHT22;63849;47.546;19.254;2024-02-23T12:01:03;10.90;85.60
51215;DHT22;63849;47.546;19.254;2024-02-23T12:03:29;10.90;85.30
51215;DHT22;63849;47.546;19.254;2024-02-23T12:05:59;11.00;85.10
51215;DHT22;63849;47.546;19.254;2024-02-23T12:08:30;11.00;84.90
51215;DHT22;63849;47.546;19.254;2024-02-23T12:10:57;11.10;84.60
51215;DHT22;63849;47.546;19.254;2024-02-23T12:13:26;11.10;84.60
51215;DHT22;63849;47.546;19.254;2024-02-23T12:15:53;11.10;84.80
51215;DHT22;63849;47.546;19.254;2024-02-23T12:18:24;11.10;84.60
51215;DHT22;63849;47.546;19.254;2024-02-23T12:20:53;11.10;84.40
51215;DHT22;63849;47.546;19.254;2024-02-23T12:23:18;11.20;84.30
51215;DHT22;63849;47.546;19.254;2024-02-23T12:25:57;11.20;84.50
51215;DHT22;63849;47.546;19.254;2024-02-23T12:28:23;11.30;84.30
51215;DHT22;63849;47.546;19.254;2024-02-23T12:31:02;11.30;83.90
51215;DHT22;63849;47.546;19.254;2024-02-23T12:33:32;11.40;83.60
51215;DHT22;63849;47.546;19.254;2024-02-23T12:35:58;11.40;83.50
51215;DHT22;63849;47.546;19.254;2024-02-23T12:38:25;11.30;83.50
51215;DHT22;63849;47.546;19.254;2024-02-23T12:40:51;11.50;83.20
51215;DHT22;63849;47.546;19.254;2024-02-23T12:43:17;11.50;83.20
51215;DHT22;63849;47.546;19.254;2024-02-23T12:45:43;11.50;82.20
51215;DHT22;63849;47.546;19.254;2024-02-23T12:48:17;11.40;81.80
51215;DHT22;63849;47.546;19.254;2024-02-23T12:50:44;11.30;82.30
51215;DHT22;63849;47.546;19.254;2024-02-23T12:53:30;11.30;82.60
51215;DHT22;63849;47.546;19.254;2024-02-23T12:56:03;11.20;82.80
51215;DHT22;63849;47.546;19.254;2024-02-23T12:58:29;11.20;82.40
51215;DHT22;63849;47.546;19.254;2024-02-23T13:00:55;11.10;82.60
51215;DHT22;63849;47.546;19.254;2024-02-23T13:03:21;11.10;82.60
51215;DHT22;63849;47.546;19.254;2024-02-23T13:05:46;11.10;82.70
51215;DHT22;63849;47.546;19.254;2024-02-23T13:08:12;11.10;82.60
51215;DHT22;63849;47.546;19.254;2024-02-23T13:10:38;11.00;82.90
51215;DHT22;63849;47.546;19.254;2024-02-23T13:13:03;11.00;82.90
51215;DHT22;63849;47.546;19.254;2024-02-23T13:15:29;11.00;82.80
51215;DHT22;63849;47.546;19.254;2024-02-23T13:17:55;10.90;83.00
51215;DHT22;63849;47.546;19.254;2024-02-23T13:20:22;10.90;83.00
51215;DHT22;63849;47.546;19.254;2024-02-23T13:22:49;10.80;83.10
51215;DHT22;63849;47.546;19.254;2024-02-23T13:25:15;10.80;83.30
51215;DHT22;63849;47.546;19.254;2024-02-23T13:27:40;10.80;83.10
51215;DHT22;63849;47.546;19.254;2024-02-23T13:30:06;10.80;82.60
51215;DHT22;63849;47.546;19.254;2024-02-23T13:32:32;10.80;83.00
51215;DHT22;63849;47.546;19.254;2024-02-23T13:34:58;10.70;82.80
51215;DHT22;63849;47.546;19.254;2024-02-23T13:37:24;10.70;82.70
51215;DHT22;63849;47.546;19.254;2024-02-23T13:39:51;10.60;82.80
51215;DHT22;63849;47.546;19.254;2024-02-23T13:42:17;10.70;83.00
51215;DHT22;63849;47.546;19.254;2024-02-23T13:44:42;10.70;82.90
51215;DHT22;63849;47.546;19.254;2024-02-23T13:47:08;10.70;82.80
51215;DHT22;63849;47.546;19.254;2024-02-23T13:49:36;10.60;83.00
51215;DHT22;63849;47.546;19.254;2024-02-23T13:52:02;10.60;83.10
51215;DHT22;63849;47.546;19.254;2024-02-23T13:54:28;10.60;83.10
51215;DHT22;63849;47.546;19.254;2024-02-23T13:56:53;10.60;82.90
51215;DHT22;63849;47.546;19.254;2024-02-23T13:59:19;10.60;82.40
51215;DHT22;63849;47.546;19.254;2024-02-23T14:01:45;10.60;82.00
51215;DHT22;63849;47.546;19.254;2024-02-23T14:04:10;10.60;82.40
51215;DHT22;63849;47.546;19.254;2024-02-23T14:06:36;10.60;82.90
51215;DHT22;63849;47.546;19.254;2024-02-23T14:09:02;10.60;83.20
51215;DHT22;63849;47.546;19.254;2024-02-23T14:11:29;10.60;83.10
51215;DHT22;63849;47.546;19.254;2024-02-23T14:13:57;10.60;83.10
51215;DHT22;63849;47.546;19.254;2024-02-23T14:16:23;10.70;82.50
51215;DHT22;63849;47.546;19.254;2024-02-23T14:18:49;10.80;82.00
51215;DHT22;63849;47.546;19.254;2024-02-23T14:21:15;10.80;81.90
51215;DHT22;63849;47.546;19.254;2024-02-23T14:23:42;10.80;81.80
51215;DHT22;63849;47.546;19.254;2024-02-23T14:26:08;10.80;81.50
51215;DHT22;63849;47.546;19.254;2024-02-23T14:28:34;10.80;81.30
51215;DHT22;63849;47.546;19.254;2024-02-23T14:31:00;10.70;81.20
51215;DHT22;63849;47.546;19.254;2024-02-23T14:33:25;10.70;81.30
51215;DHT22;63849;47.546;19.254;2024-02-23T14:35:51;10.70;81.50
51215;DHT22;63849;47.546;19.254;2024-02-23T14:38:17;10.70;81.30
51215;DHT22;63849;47.546;19.254;2024-02-23T14:40:42;10.70;81.00
51215;DHT22;63849;47.546;19.254;2024-02-23T14:43:08;10.70;80.90
51215;DHT22;63849;47.546;19.254;2024-02-23T14:45:35;10.60;81.30
51215;DHT22;63849;47.546;19.254;2024-02-23T14:48:01;10.60;81.00
51215;DHT22;63849;47.546;19.254;2024-02-23T14:50:27;10.60;81.40
51215;DHT22;63849;47.546;19.254;2024-02-23T14:52:53;10.60;81.30
51215;DHT22;63849;47.546;19.254;2024-02-23T14:55:19;10.60;80.90
51215;DHT22;63849;47.546;19.254;2024-02-23T14:57:45;10.50;81.20
51215;DHT22;63849;47.546;19.254;2024-02-23T15:00:11;10.60;80.80
51215;DHT22;63849;47.546;19.254;2024-02-23T15:02:38;10.60;81.00
51215;DHT22;63849;47.546;19.254;2024-02-23T15:05:05;10.60;80.80
51215;DHT22;63849;47.546;19.254;2024-02-23T15:07:32;10.60;80.80
51215;DHT22;63849;47.546;19.254;2024-02-23T15:09:59;10.60;80.90
51215;DHT22;63849;47.546;19.254;2024-02-23T15:12:28;10.50;80.90
51215;DHT22;63849;47.546;19.254;2024-02-23T15:14:55;10.50;80.90
51215;DHT22;63849;47.546;19.254;2024-02-23T15:17:20;10.50;80.70
51215;DHT22;63849;47.546;19.254;2024-02-23T15:19:46;10.60;80.50